Time,TemperatureC,DewpointC,PressurehPa,WindDirection,WindDirectionDegrees,WindSpeedKMH,WindSpeedGustKMH,Humidity,HourlyPrecipMM,Conditions,Clouds,dailyrainMM,SolarRadiationWatts/m^2,UVIndex,SoftwareType,DateUTC
2024-04-20 00:04:58,13.8,7.8,1019.1,NE,35,7.4,5.8,67,0.0,,,0.0,,0,n/a,2024-04-19T22:04:58Z
2024-04-20 00:09:56,13.7,7.7,1019.1,NE,44,6.8,5.8,67,0.0,,,0.0,,0,n/a,2024-04-19T22:09:56Z
2024-04-20 00:14:58,13.7,7.7,1019.1,NE,51,5.7,5,67,0.0,,,0.0,,0,n/a,2024-04-19T22:14:58Z
2024-04-20 00:19:58,13.7,7.7,1019.0,NE,41,7.1,5,67,0.0,,,0.0,,0,n/a,2024-04-19T22:19:58Z
2024-04-20 00:24:56,13.6,7.6,1019.0,NE,42,7.1,3.9,67,0.0,,,0.0,,0,n/a,2024-04-19T22:24:56Z
2024-04-20 00:29:59,13.6,7.6,1019.0,NE,45,7.6,5,67,0.0,,,0.0,,0,n/a,2024-04-19T22:29:59Z
2024-04-20 00:34:59,13.7,7.6,1018.7,NE,46,7.4,5,67,0.0,,,0.0,,0,n/a,2024-04-19T22:34:59Z
2024-04-20 00:39:58,13.6,7.6,1018.7,NE,34,5.3,5,67,0.0,,,0.0,,0,n/a,2024-04-19T22:39:58Z
2024-04-20 00:44:48,13.6,7.6,1018.7,NE,52,4.4,4.7,67,0.0,,,0.0,,0,n/a,2024-04-19T22:44:48Z
2024-04-20 00:49:57,13.5,7.6,1018.5,NE,51,3,4.7,67.5,0.0,,,0.0,,0,n/a,2024-04-19T22:49:57Z
2024-04-20 00:54:59,13.4,7.6,1018.5,NE,51,3.7,2.9,68,0.0,,,0.0,,0,n/a,2024-04-19T22:54:59Z
2024-04-20 00:59:57,13.3,7.5,1018.5,NE,50,4.2,2.9,68,0.0,,,0.0,,0,n/a,2024-04-19T22:59:57Z
2024-04-20 01:04:59,13.2,7.5,1018.5,NE,47,4.2,2.3,68,0.0,,,0.0,,0,n/a,2024-04-19T23:04:59Z
2024-04-20 01:09:57,13.2,7.4,1018.5,NE,47,3.7,2.9,68.2,0.0,,,0.0,,0,n/a,2024-04-19T23:09:57Z
2024-04-20 01:14:55,13.1,7.5,1018.5,NE,47,3.7,2.9,69,0.0,,,0.0,,0,n/a,2024-04-19T23:14:55Z
2024-04-20 01:19:56,13,7.5,1018.3,North,7,4.6,2.9,69.1,0.0,,,0.0,,0,n/a,2024-04-19T23:19:56Z
2024-04-20 01:24:58,12.9,7.6,1018.3,North,0,3.8,2.3,70,0.0,,,0.0,,0,n/a,2024-04-19T23:24:58Z
2024-04-20 01:29:57,12.9,7.6,1018.3,North,1,3.7,2.3,70,0.0,,,0.0,,0,n/a,2024-04-19T23:29:57Z
2024-04-20 01:34:58,12.9,7.6,1018.2,North,0,2.8,2.3,70.2,0.0,,,0.0,,0,n/a,2024-04-19T23:34:58Z
2024-04-20 01:39:56,12.8,7.5,1018.2,North,0,2.9,2.3,70,0.0,,,0.0,,0,n/a,2024-04-19T23:39:56Z
2024-04-20 01:44:58,12.8,7.6,1018.2,NO,310,3.7,2.3,70.7,0.0,,,0.0,,0,n/a,2024-04-19T23:44:58Z
2024-04-20 01:49:57,12.8,7.5,1018.0,ONO,303,2.3,2.3,70.4,0.0,,,0.0,,0,n/a,2024-04-19T23:49:57Z
2024-04-20 01:54:59,12.7,7.4,1018.0,ONO,303,1.5,0,70,0.0,,,0.0,,0,n/a,2024-04-19T23:54:59Z
2024-04-20 01:59:57,12.7,7.5,1018.0,ONO,303,2.8,0,70.5,0.0,,,0.0,,0,n/a,2024-04-19T23:59:57Z
2024-04-20 02:04:58,12.7,7.6,1017.8,ONO,303,3.7,0,71,0.0,,,0.0,,0,n/a,2024-04-20T00:04:58Z
2024-04-20 02:09:57,12.7,7.6,1017.8,ONO,303,3.9,2.9,71,0.0,,,0.0,,0,n/a,2024-04-20T00:09:57Z
2024-04-20 02:14:59,12.7,7.6,1017.8,ONO,303,3.9,2.9,71,0.0,,,0.0,,0,n/a,2024-04-20T00:14:59Z
2024-04-20 02:19:56,12.7,7.6,1017.5,ONO,303,3,2.9,71,0.0,,,0.0,,0,n/a,2024-04-20T00:19:56Z
2024-04-20 02:24:58,12.7,7.6,1017.5,ONO,303,3,2.3,71,0.0,,,0.0,,0,n/a,2024-04-20T00:24:58Z
2024-04-20 02:29:56,12.6,7.5,1017.5,NO,304,3.8,2.3,71,0.0,,,0.0,,0,n/a,2024-04-20T00:29:56Z
2024-04-20 02:34:56,12.6,7.5,1017.4,NO,305,2.5,2.3,71,0.0,,,0.0,,0,n/a,2024-04-20T00:34:56Z
2024-04-20 02:39:59,12.5,7.4,1017.4,NO,305,1.6,2.3,71,0.0,,,0.0,,0,n/a,2024-04-20T00:39:59Z
2024-04-20 02:44:57,12.4,7.3,1017.4,NO,314,4.1,0,70.9,0.0,,,0.0,,0,n/a,2024-04-20T00:44:57Z
2024-04-20 02:49:58,12.3,7,1017.1,ESE,123,6,2.9,70,0.0,,,0.0,,0,n/a,2024-04-20T00:49:58Z
2024-04-20 02:54:56,12.3,7,1017.1,ESE,116,6.3,2.9,70,0.0,,,0.0,,0,n/a,2024-04-20T00:54:56Z
2024-04-20 02:59:58,12.3,7,1017.1,SE,142,6.8,3.9,70,0.0,,,0.0,,0,n/a,2024-04-20T00:59:58Z
2024-04-20 03:04:55,12.2,6.9,1016.9,SSE,158,7.5,3.9,70,0.0,,,0.0,,0,n/a,2024-04-20T01:04:55Z
2024-04-20 03:09:58,12.2,6.9,1016.9,SSE,153,6.7,5,70,0.0,,,0.0,,0,n/a,2024-04-20T01:09:58Z
2024-04-20 03:14:56,12.2,6.9,1016.9,SSE,153,7,5,70,0.0,,,0.0,,0,n/a,2024-04-20T01:14:56Z
2024-04-20 03:19:56,12.3,6.9,1016.8,SSE,165,7,5,70,0.0,,,0.0,,0,n/a,2024-04-20T01:19:56Z
2024-04-20 03:24:58,12.3,7.1,1016.8,SSO,195,8,4.7,70.4,0.0,,,0.0,,0,n/a,2024-04-20T01:24:58Z
2024-04-20 03:29:56,12.3,7.2,1016.8,SSO,194,6.6,4.7,71,0.0,,,0.0,,0,n/a,2024-04-20T01:29:56Z
2024-04-20 03:34:56,12.4,7.1,1016.6,Sur,178,5.7,4.7,70.3,0.0,,,0.0,,0,n/a,2024-04-20T01:34:56Z
2024-04-20 03:39:59,12.5,7.1,1016.6,Sur,170,7.4,4.7,70,0.0,,,0.0,,0,n/a,2024-04-20T01:39:59Z
2024-04-20 03:44:57,12.5,7.2,1016.6,SSE,159,6.2,4.7,70,0.0,,,0.0,,0,n/a,2024-04-20T01:44:57Z
2024-04-20 03:49:57,12.6,7.3,1016.6,SE,143,3.8,4.7,70,0.0,,,0.0,,0,n/a,2024-04-20T01:49:57Z
2024-04-20 03:54:59,12.6,7.3,1016.6,SE,133,3.8,3.9,70,0.0,,,0.0,,0,n/a,2024-04-20T01:54:59Z
2024-04-20 03:59:57,12.5,7.2,1016.6,Sur,176,4.9,3.9,70,0.0,,,0.0,,0,n/a,2024-04-20T01:59:57Z
2024-04-20 04:04:58,12.5,7.2,1016.6,SSO,201,6.9,2.9,70,0.0,,,0.0,,0,n/a,2024-04-20T02:04:58Z
2024-04-20 04:09:57,12.5,7.2,1016.6,SSO,207,5.8,5,70,0.0,,,0.0,,0,n/a,2024-04-20T02:09:57Z
2024-04-20 04:14:59,12.5,7.2,1016.6,SSO,211,2.9,5,70,0.0,,,0.0,,0,n/a,2024-04-20T02:14:59Z
2024-04-20 04:19:59,12.5,7.1,1016.5,SSO,213,3.6,5,70,0.0,,,0.0,,0,n/a,2024-04-20T02:19:59Z
2024-04-20 04:24:57,12.4,7.1,1016.5,SO,217,4.3,2.3,70,0.0,,,0.0,,0,n/a,2024-04-20T02:24:57Z
2024-04-20 04:29:55,12.3,7.1,1016.5,OSO,250,4.9,3.2,70.7,0.0,,,0.0,,0,n/a,2024-04-20T02:29:55Z
2024-04-20 04:34:56,12.3,7.2,1016.5,OSO,250,5.6,3.2,71,0.0,,,0.0,,0,n/a,2024-04-20T02:34:56Z
2024-04-20 04:39:58,12.3,7.2,1016.5,OSO,242,4.3,3.2,71,0.0,,,0.0,,0,n/a,2024-04-20T02:39:58Z
2024-04-20 04:44:56,12.3,7.2,1016.5,OSO,248,3.2,3.2,71,0.0,,,0.0,,0,n/a,2024-04-20T02:44:56Z
2024-04-20 04:49:56,12.3,7.2,1016.4,Oeste,263,4.6,3.2,71,0.0,,,0.0,,0,n/a,2024-04-20T02:49:56Z
2024-04-20 04:54:59,12.3,7.2,1016.4,Oeste,264,3.7,2.9,71,0.0,,,0.0,,0,n/a,2024-04-20T02:54:59Z
2024-04-20 04:59:56,12.3,7.2,1016.4,Oeste,264,3.8,2.9,71,0.0,,,0.0,,0,n/a,2024-04-20T02:59:56Z
2024-04-20 05:04:57,12.3,7.2,1016.2,Oeste,264,3.5,2.9,71,0.0,,,0.0,,0,n/a,2024-04-20T03:04:57Z
2024-04-20 05:09:56,12.3,7.2,1016.2,Oeste,267,3.9,2.9,71,0.0,,,0.0,,0,n/a,2024-04-20T03:09:56Z
2024-04-20 05:14:59,12.3,7.3,1016.2,Oeste,273,3.2,2.3,71.4,0.0,,,0.0,,0,n/a,2024-04-20T03:14:59Z
2024-04-20 05:19:59,12.3,7.2,1016.2,Oeste,273,3.8,2.9,71.2,0.0,,,0.0,,0,n/a,2024-04-20T03:19:59Z
2024-04-20 05:24:57,12.3,7.4,1016.2,Oeste,281,5.8,2.9,72,0.0,,,0.0,,0,n/a,2024-04-20T03:24:57Z
2024-04-20 05:29:55,12.3,7.4,1016.2,Oeste,281,3.9,2.9,72,0.0,,,0.0,,0,n/a,2024-04-20T03:29:55Z
2024-04-20 05:34:56,12.3,7.4,1015.9,Oeste,262,5.4,2.9,72,0.0,,,0.0,,0,n/a,2024-04-20T03:34:56Z
2024-04-20 05:39:59,12.2,7.3,1015.9,Oeste,274,3.6,2.9,72,0.0,,,0.0,,0,n/a,2024-04-20T03:39:59Z
2024-04-20 05:44:57,12.2,7.3,1015.9,SO,234,5.5,2.9,72,0.0,,,0.0,,0,n/a,2024-04-20T03:44:57Z
2024-04-20 05:49:58,12.2,7.3,1015.9,Sur,177,4,2.9,72,0.0,,,0.0,,0,n/a,2024-04-20T03:49:58Z
2024-04-20 05:54:56,12.2,7.2,1015.9,SSE,167,5.8,2.9,71.6,0.0,,,0.0,,0,n/a,2024-04-20T03:54:56Z
2024-04-20 05:59:58,12,6.9,1015.9,Sur,170,7.1,3.9,71,0.0,,,0.0,,0,n/a,2024-04-20T03:59:58Z
2024-04-20 06:04:59,11.9,7,1015.8,Sur,175,6.5,3.9,71.9,0.0,,,0.0,,0,n/a,2024-04-20T04:04:59Z
2024-04-20 06:09:58,11.8,6.9,1015.8,SSE,160,7.4,4.7,72,0.0,,,0.0,,0,n/a,2024-04-20T04:09:58Z
2024-04-20 06:14:56,11.8,6.9,1015.8,Sur,177,9.7,4.7,72,0.0,,,0.0,,0,n/a,2024-04-20T04:14:56Z
2024-04-20 06:19:57,11.7,6.8,1015.8,Sur,172,9,6.4,72,0.0,,,0.0,,0,n/a,2024-04-20T04:19:57Z
2024-04-20 06:24:59,11.7,6.9,1015.8,Sur,179,8.6,6.4,72.2,0.0,,,0.0,,0,n/a,2024-04-20T04:24:59Z
2024-04-20 06:29:58,11.7,7,1015.8,Sur,172,8.9,6.4,73,0.0,,,0.0,,0,n/a,2024-04-20T04:29:58Z
2024-04-20 06:34:58,11.6,6.9,1015.8,SSO,195,9.3,6.4,73,0.0,,,0.0,,0,n/a,2024-04-20T04:34:58Z
2024-04-20 06:39:56,11.6,6.9,1015.8,SSO,202,8.2,6.4,73,0.0,,,0.0,,0,n/a,2024-04-20T04:39:56Z
2024-04-20 06:44:59,11.6,6.9,1015.8,SSO,206,7.6,6.4,73,0.0,,,0.0,,0,n/a,2024-04-20T04:44:59Z
2024-04-20 06:49:59,11.6,6.9,1015.7,SSO,206,7.5,6.4,73,0.0,,,0.0,,0,n/a,2024-04-20T04:49:59Z
2024-04-20 06:54:57,11.6,6.9,1015.7,SSO,203,7.9,5.8,73,0.0,,,0.0,,0,n/a,2024-04-20T04:54:57Z
2024-04-20 06:59:59,11.6,6.9,1015.7,SSO,210,9,6.4,73,0.0,,,0.0,,0,n/a,2024-04-20T04:59:59Z
2024-04-20 07:04:56,11.6,6.9,1015.7,SSO,200,8,6.4,73,0.0,,,0.0,,0,n/a,2024-04-20T05:04:56Z
2024-04-20 07:09:59,11.6,6.9,1015.7,SSO,205,8.8,6.4,73,0.0,,,0.0,,0,n/a,2024-04-20T05:09:59Z
2024-04-20 07:14:58,11.5,6.8,1015.7,SSO,202,8.7,6.4,73,0.0,,,0.0,,0,n/a,2024-04-20T05:14:58Z
2024-04-20 07:19:58,11.5,6.8,1015.7,SSO,204,8.9,6.9,73,0.0,,,0.0,,0,n/a,2024-04-20T05:19:58Z
2024-04-20 07:24:56,11.5,6.8,1015.7,SSO,210,7.6,6.9,73,0.0,,,0.0,,0,n/a,2024-04-20T05:24:56Z
2024-04-20 07:29:55,11.5,6.9,1015.7,SO,224,5.6,6.9,73.3,0.0,,,0.0,,0,n/a,2024-04-20T05:29:55Z
2024-04-20 07:34:56,11.6,7,1015.7,SO,224,6,5,73.6,0.0,,,0.0,,0,n/a,2024-04-20T05:34:56Z
2024-04-20 07:39:59,11.6,6.9,1015.7,SO,226,7.2,5,73,0.0,,,0.0,,0,n/a,2024-04-20T05:39:59Z
2024-04-20 07:44:57,11.6,6.9,1015.8,SO,236,6.8,3.9,73,0.0,,,0.0,,0,n/a,2024-04-20T05:44:57Z
2024-04-20 07:49:57,11.7,7,1015.8,SO,232,6.5,4.7,73,0.0,,,0.0,,0,n/a,2024-04-20T05:49:57Z
2024-04-20 07:54:59,11.7,7,1015.8,SSO,210,6,4.7,73,0.0,,,0.0,,0,n/a,2024-04-20T05:54:59Z
2024-04-20 07:59:57,11.8,7.1,1015.8,SSO,201,5.6,4.7,73,0.0,,,0.0,,0,n/a,2024-04-20T05:59:57Z
2024-04-20 08:04:59,11.8,7.1,1015.7,SSO,211,4.2,3.9,73,0.0,,,0.0,,0,n/a,2024-04-20T06:04:59Z
2024-04-20 08:09:58,11.8,7.1,1015.7,OSO,242,5.7,3.9,73,0.0,,,0.0,,0,n/a,2024-04-20T06:09:58Z
2024-04-20 08:14:56,11.9,7.2,1015.7,OSO,245,5.6,2.9,73,0.0,,,0.0,,0,n/a,2024-04-20T06:14:56Z
2024-04-20 08:19:56,11.9,7.2,1015.7,OSO,241,5.5,3.9,73,0.0,,,0.0,,0,n/a,2024-04-20T06:19:56Z
2024-04-20 08:24:59,11.9,7.3,1015.7,SO,227,5.7,3.9,73,0.0,,,0.0,,0,n/a,2024-04-20T06:24:59Z
2024-04-20 08:29:57,12.1,7.3,1015.9,SSO,212,5.2,3.9,72.2,0.0,,,0.0,,0,n/a,2024-04-20T06:29:57Z
2024-04-20 08:34:58,12.1,7.2,1015.9,Oeste,276,5.5,3.2,72,0.0,,,0.0,,0,n/a,2024-04-20T06:34:58Z
2024-04-20 08:39:57,12.2,7.3,1015.9,Oeste,269,5.8,3.2,72,0.0,,,0.0,,0,n/a,2024-04-20T06:39:57Z
2024-04-20 08:44:59,12.2,7.3,1016.0,Oeste,263,5.5,3.2,72,0.0,,,0.0,,0,n/a,2024-04-20T06:44:59Z
2024-04-20 08:49:59,12.2,7.3,1016.0,Oeste,276,3.7,3.2,72,0.0,,,0.0,,0,n/a,2024-04-20T06:49:59Z
2024-04-20 08:54:58,12.3,7.4,1016.0,Sur,188,5.4,3.2,72,0.0,,,0.0,,0,n/a,2024-04-20T06:54:58Z
2024-04-20 08:59:59,12.3,7.4,1016.2,SSE,166,7,3.9,72,0.0,,,0.0,,0,n/a,2024-04-20T06:59:59Z
2024-04-20 09:04:57,12.3,7.4,1016.2,Sur,175,7.4,3.9,72,0.0,,,0.0,,0,n/a,2024-04-20T07:04:57Z
2024-04-20 09:09:59,12.3,7.4,1016.2,SSO,196,7.4,5,72,0.0,,,0.0,,0,n/a,2024-04-20T07:09:59Z
2024-04-20 09:14:58,12.4,7.5,1016.4,SO,216,7.1,5,72,0.0,,,0.0,,0,n/a,2024-04-20T07:14:58Z
2024-04-20 09:19:59,12.5,7.4,1016.4,OSO,240,8.1,5,71.1,0.0,,,0.0,,0,n/a,2024-04-20T07:19:59Z
2024-04-20 09:24:56,12.6,7.5,1016.4,NO,312,6.4,4.7,71,0.0,,,0.0,,0,n/a,2024-04-20T07:24:56Z
2024-04-20 09:29:58,12.7,7.5,1016.4,NO,306,7.4,4.7,71,0.0,,,0.0,,0,n/a,2024-04-20T07:29:58Z
2024-04-20 09:34:59,12.8,7.6,1016.4,Oeste,268,6.4,4.7,71,0.0,,,0.0,,0,n/a,2024-04-20T07:34:59Z
2024-04-20 09:39:57,12.8,7.5,1016.4,OSO,247,7.5,4.7,70.1,0.0,,,0.0,,0,n/a,2024-04-20T07:39:57Z
2024-04-20 09:44:59,12.8,7.5,1016.8,OSO,252,10.7,4.7,70,0.0,,,0.0,,0,n/a,2024-04-20T07:44:59Z
2024-04-20 09:49:59,12.9,7.6,1016.8,OSO,257,8.2,6.4,70,0.0,,,0.0,,0,n/a,2024-04-20T07:49:59Z
2024-04-20 09:54:57,13.1,7.7,1016.8,Oeste,281,6.5,6.4,70,0.0,,,0.0,,0,n/a,2024-04-20T07:54:57Z
2024-04-20 09:59:59,13.3,7.8,1016.8,Oeste,276,9.5,6.4,69.1,0.0,,,0.0,,0,n/a,2024-04-20T07:59:59Z
2024-04-20 10:04:56,13.4,7.6,1016.3,SO,229,7.8,4.7,68,0.0,,,0.0,,0,n/a,2024-04-20T08:04:56Z
2024-04-20 10:09:58,13.6,7.7,1016.3,SO,217,7.7,5.8,67.5,0.0,,,0.0,,0,n/a,2024-04-20T08:09:58Z
2024-04-20 10:14:57,13.7,7.7,1016.3,Oeste,267,8.8,5.8,67,0.0,,,0.0,,0,n/a,2024-04-20T08:14:57Z
2024-04-20 10:19:57,13.8,7.7,1016.2,Oeste,280,6.8,5.8,66.6,0.0,,,0.0,,0,n/a,2024-04-20T08:19:57Z
2024-04-20 10:24:59,14.1,8.2,1016.2,NNE,13,7.2,5.8,67.5,0.0,,,0.0,,0,n/a,2024-04-20T08:24:59Z
2024-04-20 10:29:57,14.6,8.2,1016.2,NNE,25,7.2,5.8,65.3,0.0,,,0.0,,0,n/a,2024-04-20T08:29:57Z
2024-04-20 10:34:58,15,8.2,1015.8,NO,324,8.4,3.9,63.8,0.0,,,0.0,,0,n/a,2024-04-20T08:34:58Z
2024-04-20 10:39:56,15.2,8.1,1015.8,Oeste,280,8.3,5,62.7,0.0,,,0.0,,0,n/a,2024-04-20T08:39:56Z
2024-04-20 10:44:58,15.3,8.3,1015.9,NNE,25,6.5,5,62.9,0.0,,,0.0,,0,n/a,2024-04-20T08:44:58Z
2024-04-20 10:49:58,15.7,8.3,1015.9,ENE,72,6.9,5,61.7,0.0,,,0.0,,0,n/a,2024-04-20T08:49:58Z
2024-04-20 10:54:56,16,8.3,1015.9,SE,145,7.5,4.7,60.5,0.0,,,0.0,,0,n/a,2024-04-20T08:54:56Z
2024-04-20 10:59:59,16.2,8.3,1016.0,Sur,180,9.1,5,59.2,0.0,,,0.0,,0,n/a,2024-04-20T08:59:59Z
2024-04-20 11:04:56,16.3,8.2,1016.0,SSO,208,8.9,5,58.8,0.0,,,0.0,,0,n/a,2024-04-20T09:04:56Z
2024-04-20 11:09:59,16.2,8.1,1016.0,Sur,176,7.1,5.8,58.5,0.0,,,0.0,,0,n/a,2024-04-20T09:09:59Z
2024-04-20 11:14:57,16.3,8.1,1016.0,Oeste,272,9,5.8,58.1,0.0,,,0.0,,0,n/a,2024-04-20T09:14:57Z
2024-04-20 11:19:57,16.4,8.1,1015.8,ONO,288,7.8,5.8,58,0.0,,,0.0,,0,n/a,2024-04-20T09:19:57Z
2024-04-20 11:24:56,16.5,8.2,1015.8,ENE,64,6.6,5.8,58,0.0,,,0.0,,0,n/a,2024-04-20T09:24:56Z
2024-04-20 11:29:59,16.8,8.3,1015.8,SSE,154,5.2,5.8,57.3,0.0,,,0.0,,0,n/a,2024-04-20T09:29:59Z
2024-04-20 11:34:56,17.1,8.2,1015.6,SSO,208,7.7,3.9,56,0.0,,,0.0,,0,n/a,2024-04-20T09:34:56Z
2024-04-20 11:39:59,17.2,8.1,1015.6,SSO,209,9.2,5,55.3,0.0,,,0.0,,0,n/a,2024-04-20T09:39:59Z
2024-04-20 11:44:57,17.2,8.1,1015.7,SSO,200,7.8,5,55,0.0,,,0.0,,0,n/a,2024-04-20T09:44:57Z
2024-04-20 11:49:57,17.2,8.1,1015.7,SSO,199,8.7,5.8,55,0.0,,,0.0,,0,n/a,2024-04-20T09:49:57Z
2024-04-20 11:54:59,17.2,8.1,1015.7,SSE,165,8.1,5.8,55,0.0,,,0.0,,0,n/a,2024-04-20T09:54:59Z
2024-04-20 11:59:57,17.5,8.3,1015.7,Este,84,7.6,5.8,55,0.0,,,0.0,,0,n/a,2024-04-20T09:59:57Z
2024-04-20 12:04:59,17.8,8.4,1015.6,SSE,155,7.2,5.8,54.1,0.0,,,0.0,,0,n/a,2024-04-20T10:04:59Z
2024-04-20 12:09:57,18.1,8.3,1015.6,Sur,176,8.6,5.8,52.7,0.0,,,0.0,,0,n/a,2024-04-20T10:09:57Z
2024-04-20 12:14:59,18.2,8.1,1015.6,SSE,156,7.8,4.7,52,0.0,,,0.0,,0,n/a,2024-04-20T10:14:59Z
2024-04-20 12:19:56,18.3,8.3,1015.4,Este,97,6.8,4.7,52,0.0,,,0.0,,0,n/a,2024-04-20T10:19:56Z
2024-04-20 12:24:58,18.6,8.2,1015.4,Este,80,6,4.7,50.9,0.0,,,0.0,,0,n/a,2024-04-20T10:24:58Z
2024-04-20 12:29:56,18.8,8,1015.5,Oeste,267,6.5,4.7,49.7,0.0,,,0.0,,0,n/a,2024-04-20T10:29:56Z
2024-04-20 12:34:56,18.9,8,1015.5,SO,225,5,3.9,49.2,0.0,,,0.0,,0,n/a,2024-04-20T10:34:56Z
2024-04-20 12:39:59,19.2,7.6,1015.5,ESE,114,9.4,3.9,46.9,0.0,,,0.0,,0,n/a,2024-04-20T10:39:59Z
2024-04-20 12:44:57,19.3,7.6,1015.5,Este,95,10.1,3.9,46.7,0.0,,,0.0,,0,n/a,2024-04-20T10:44:57Z
2024-04-20 12:49:57,19.7,7.8,1015.4,ESE,121,7.5,5.8,46.4,0.0,,,0.0,,0,n/a,2024-04-20T10:49:57Z
2024-04-20 12:54:56,19.8,7.8,1015.4,ENE,63,11.6,5.8,45.9,0.0,,,0.0,,0,n/a,2024-04-20T10:54:56Z
2024-04-20 12:59:58,19.7,7.8,1015.4,NNE,18,10.2,6.9,46.4,0.0,,,0.0,,0,n/a,2024-04-20T10:59:58Z
2024-04-20 13:04:56,19.6,7.8,1015.4,NE,52,13,6.9,46.3,0.0,,,0.0,,0,n/a,2024-04-20T11:04:56Z
2024-04-20 13:09:59,19.6,7.8,1015.4,NE,45,12,7.6,46.4,0.0,,,0.0,,0,n/a,2024-04-20T11:09:59Z
2024-04-20 13:14:58,19.8,7.9,1015.4,ENE,68,11.4,7.6,46.3,0.0,,,0.0,,0,n/a,2024-04-20T11:14:58Z
2024-04-20 13:19:58,20,7.9,1015.2,NE,50,12.9,7.6,45.7,0.0,,,0.0,,0,n/a,2024-04-20T11:19:58Z
2024-04-20 13:24:57,20.2,7.9,1015.2,NE,39,14.8,7.6,45.2,0.0,,,0.0,,0,n/a,2024-04-20T11:24:57Z
2024-04-20 13:29:56,20.4,8,1015.2,NE,51,8.7,7.6,45,0.0,,,0.0,,0,n/a,2024-04-20T11:29:56Z
2024-04-20 13:34:57,20.7,8,1014.9,ENE,76,13.4,6.9,44,0.0,,,0.0,,0,n/a,2024-04-20T11:34:57Z
2024-04-20 13:39:56,20.8,8.1,1014.9,NNO,336,7.3,6.9,44,0.0,,,0.0,,0,n/a,2024-04-20T11:39:56Z
2024-04-20 13:44:58,21.2,8.1,1014.9,ESE,102,12.8,6.4,42.9,0.0,,,0.0,,0,n/a,2024-04-20T11:44:58Z
2024-04-20 13:49:59,21.2,7.8,1014.6,ENE,62,14.6,7.6,42.2,0.0,,,0.0,,0,n/a,2024-04-20T11:49:59Z
2024-04-20 13:54:57,21.2,7.8,1014.6,NNE,23,12.7,7.6,42,0.0,,,0.0,,0,n/a,2024-04-20T11:54:57Z
2024-04-20 13:59:59,21.3,7.5,1014.6,NE,48,17.3,9.5,40.8,0.0,,,0.0,,0,n/a,2024-04-20T11:59:59Z
2024-04-20 14:04:56,21.3,7.2,1014.3,Este,83,16.7,9.5,40,0.0,,,0.0,,0,n/a,2024-04-20T12:04:56Z
2024-04-20 14:09:59,21.2,7.4,1014.3,NE,56,20.3,11.1,40.9,0.0,,,0.0,,0,n/a,2024-04-20T12:09:59Z
2024-04-20 14:14:57,21.3,7.5,1014.4,ENE,71,15.7,11.1,41,0.0,,,0.0,,0,n/a,2024-04-20T12:14:57Z
2024-04-20 14:19:58,21.4,7.4,1014.4,NE,55,18.8,11.1,40.6,0.0,,,0.0,,0,n/a,2024-04-20T12:19:58Z
2024-04-20 14:24:56,21.2,7.4,1014.4,NE,47,13,10.3,40.9,0.0,,,0.0,,0,n/a,2024-04-20T12:24:56Z
2024-04-20 14:29:58,21.2,7.7,1014.4,NE,42,18.5,10.3,41.7,0.0,,,0.0,,0,n/a,2024-04-20T12:29:58Z
2024-04-20 14:34:58,21.3,7.8,1014.3,NE,37,14,10,41.8,0.0,,,0.0,,0,n/a,2024-04-20T12:34:58Z
2024-04-20 14:39:57,21.4,7.6,1014.3,ENE,64,23.1,10.3,41,0.0,,,0.0,,0,n/a,2024-04-20T12:39:57Z
2024-04-20 14:44:56,21.6,7.5,1014.3,ENE,68,17.1,10.3,40.5,0.0,,,0.0,,0,n/a,2024-04-20T12:44:56Z
2024-04-20 14:49:57,21.4,7.5,1014.1,NE,48,21.6,11.9,40.6,0.0,,,0.0,,0,n/a,2024-04-20T12:49:57Z
2024-04-20 14:54:56,21.3,7.2,1014.1,NE,53,19.8,11.9,40.1,0.0,,,0.0,,0,n/a,2024-04-20T12:54:56Z
2024-04-20 14:59:58,21.2,7.1,1014.2,NE,41,26.1,13,40,0.0,,,0.0,,0,n/a,2024-04-20T12:59:58Z
2024-04-20 15:04:56,21,6.9,1014.2,NE,43,24.2,13,40.1,0.0,,,0.0,,0,n/a,2024-04-20T13:04:56Z
2024-04-20 15:09:59,20.7,7.1,1014.2,NE,42,24.1,16.1,41.4,0.0,,,0.0,,0,n/a,2024-04-20T13:09:59Z
2024-04-20 15:14:57,20.7,7.3,1014.2,NE,37,22,16.1,42,0.0,,,0.0,,0,n/a,2024-04-20T13:14:57Z
2024-04-20 15:19:57,20.7,7.5,1014.0,NE,37,24.5,16.1,42.4,0.0,,,0.0,,0,n/a,2024-04-20T13:19:57Z
2024-04-20 15:24:56,20.8,7.5,1014.0,NE,42,20.4,14.8,42.5,0.0,,,0.0,,0,n/a,2024-04-20T13:24:56Z
2024-04-20 15:29:59,20.7,7.6,1014.1,NE,43,23,14.8,42.8,0.0,,,0.0,,0,n/a,2024-04-20T13:29:59Z
2024-04-20 15:34:59,20.6,7.8,1014.1,NE,46,24.7,13.7,43.7,0.0,,,0.0,,0,n/a,2024-04-20T13:34:59Z
2024-04-20 15:39:59,20.5,8,1014.1,NE,41,21.9,15.6,44.6,0.0,,,0.0,,0,n/a,2024-04-20T13:39:59Z
2024-04-20 15:44:58,20.4,8.1,1014.1,NE,50,24.6,15.6,45,0.0,,,0.0,,0,n/a,2024-04-20T13:44:58Z
2024-04-20 15:49:59,20.3,7.8,1014.0,NE,46,23.4,15.6,44.5,0.0,,,0.0,,0,n/a,2024-04-20T13:49:59Z
2024-04-20 15:54:57,20.3,7.9,1014.0,NNE,33,19.3,14.8,44.9,0.0,,,0.0,,0,n/a,2024-04-20T13:54:57Z
2024-04-20 15:59:56,20.3,7.6,1014.0,NE,53,21.2,14.8,43.9,0.0,,,0.0,,0,n/a,2024-04-20T13:59:56Z
2024-04-20 16:04:57,20.2,7.2,1013.9,NE,46,23.4,13,42.9,0.0,,,0.0,,0,n/a,2024-04-20T14:04:57Z
2024-04-20 16:09:45,20,7,1013.9,NE,55,23.6,14,42.9,0.0,,,0.0,,0,n/a,2024-04-20T14:09:45Z